Aviation Digital Data Service (ADDS)

Output produced by METARs form (0301 UTC 18 June 2019)
found at http://www.aviationweather.gov/metar/data/
 
METAR text: KMHT 180253Z 00000KT 10SM FEW060 SCT250 21/15 A2996 RMK AO2 SLP156 T02110150 51010
Conditions at: KMHT (MANCHESTER , NH, US) observed 0253 UTC 18 June 2019
Temperature: 21.1°C (70°F)
Dewpoint: 15.0°C (59°F) [RH = 68%]
Pressure (altimeter): 29.96 inches Hg (1014.6 mb)
[Sea-level pressure: 1015.6 mb]
Winds: calm
Visibility: 10 or more miles (16+ km)
Ceiling: at least 12,000 feet AGL
Clouds: few clouds at 6000 feet AGL
scattered clouds at 25000 feet AGL
Weather: no significant weather observed at this time

METAR text: KMHT 180153Z 19003KT 10SM FEW060 SCT250 22/15 A2995 RMK AO2 SLP154 T02170150
Conditions at: KMHT (MANCHESTER , NH, US) observed 0153 UTC 18 June 2019
Temperature: 21.7°C (71°F)
Dewpoint: 15.0°C (59°F) [RH = 66%]
Pressure (altimeter): 29.95 inches Hg (1014.3 mb)
[Sea-level pressure: 1015.4 mb]
Winds: from the S (190 degrees) at 3 MPH (3 knots; 1.5 m/s)
Visibility: 10 or more miles (16+ km)
Ceiling: at least 12,000 feet AGL
Clouds: few clouds at 6000 feet AGL
scattered clouds at 25000 feet AGL
Weather: no significant weather observed at this time

METAR text: KMHT 180053Z 19006KT 10SM FEW060 SCT250 23/14 A2994 RMK AO2 SLP148 T02330144
Conditions at: KMHT (MANCHESTER , NH, US) observed 0053 UTC 18 June 2019
Temperature: 23.3°C (74°F)
Dewpoint: 14.4°C (58°F) [RH = 57%]
Pressure (altimeter): 29.94 inches Hg (1014.0 mb)
[Sea-level pressure: 1014.8 mb]
Winds: from the S (190 degrees) at 7 MPH (6 knots; 3.1 m/s)
Visibility: 10 or more miles (16+ km)
Ceiling: at least 12,000 feet AGL
Clouds: few clouds at 6000 feet AGL
scattered clouds at 25000 feet AGL
Weather: no significant weather observed at this time

METAR text: KMHT 172353Z 19005KT 10SM FEW060 SCT250 24/14 A2993 RMK AO2 SLP145 T02440139 10272 20244 55001
Conditions at: KMHT (MANCHESTER , NH, US) observed 2353 UTC 17 June 2019
Temperature: 24.4°C (76°F)
Dewpoint: 13.9°C (57°F) [RH = 52%]
Pressure (altimeter): 29.93 inches Hg (1013.6 mb)
[Sea-level pressure: 1014.5 mb]
Winds: from the S (190 degrees) at 6 MPH (5 knots; 2.6 m/s)
Visibility: 10 or more miles (16+ km)
Ceiling: at least 12,000 feet AGL
Clouds: few clouds at 6000 feet AGL
scattered clouds at 25000 feet AGL
Weather: no significant weather observed at this time

METAR text: KMHT 172253Z 19007KT 10SM FEW060 SCT250 26/14 A2993 RMK AO2 SLP144 T02560139
Conditions at: KMHT (MANCHESTER , NH, US) observed 2253 UTC 17 June 2019
Temperature: 25.6°C (78°F)
Dewpoint: 13.9°C (57°F) [RH = 48%]
Pressure (altimeter): 29.93 inches Hg (1013.6 mb)
[Sea-level pressure: 1014.4 mb]
Winds: from the S (190 degrees) at 8 MPH (7 knots; 3.6 m/s)
Visibility: 10 or more miles (16+ km)
Ceiling: at least 12,000 feet AGL
Clouds: few clouds at 6000 feet AGL
scattered clouds at 25000 feet AGL
Weather: no significant weather observed at this time

METAR text: KMHT 172153Z 23009KT 10SM FEW060 BKN250 26/13 A2992 RMK AO2 SLP143 T02610133
Conditions at: KMHT (MANCHESTER , NH, US) observed 2153 UTC 17 June 2019
Temperature: 26.1°C (79°F)
Dewpoint: 13.3°C (56°F) [RH = 45%]
Pressure (altimeter): 29.92 inches Hg (1013.3 mb)
[Sea-level pressure: 1014.3 mb]
Winds: from the SW (230 degrees) at 10 MPH (9 knots; 4.6 m/s)
Visibility: 10 or more miles (16+ km)
Ceiling: 25000 feet AGL
Clouds: few clouds at 6000 feet AGL
broken clouds at 25000 feet AGL
Weather: no significant weather observed at this time

METAR text: KMHT 172053Z 20004KT 10SM FEW060 BKN250 27/11 A2993 RMK AO2 SLP146 T02670111 56007
Conditions at: KMHT (MANCHESTER , NH, US) observed 2053 UTC 17 June 2019
Temperature: 26.7°C (80°F)
Dewpoint: 11.1°C (52°F) [RH = 38%]
Pressure (altimeter): 29.93 inches Hg (1013.6 mb)
[Sea-level pressure: 1014.6 mb]
Winds: from the SSW (200 degrees) at 5 MPH (4 knots; 2.1 m/s)
Visibility: 10 or more miles (16+ km)
Ceiling: 25000 feet AGL
Clouds: few clouds at 6000 feet AGL
broken clouds at 25000 feet AGL
Weather: no significant weather observed at this time

METAR text: KMHT 171953Z 22007KT 190V250 10SM FEW060 BKN250 27/12 A2994 RMK AO2 SLP147 T02720117
Conditions at: KMHT (MANCHESTER , NH, US) observed 1953 UTC 17 June 2019
Temperature: 27.2°C (81°F)
Dewpoint: 11.7°C (53°F) [RH = 38%]
Pressure (altimeter): 29.94 inches Hg (1014.0 mb)
[Sea-level pressure: 1014.7 mb]
Winds: from the SW (220 degrees) at 8 MPH (7 knots; 3.6 m/s)
Visibility: 10 or more miles (16+ km)
Ceiling: 25000 feet AGL
Clouds: few clouds at 6000 feet AGL
broken clouds at 25000 feet AGL
Weather: no significant weather observed at this time

METAR text: KMHT 171853Z VRB03KT 10SM FEW060 BKN250 26/11 A2994 RMK AO2 SLP149 T02610106
Conditions at: KMHT (MANCHESTER , NH, US) observed 1853 UTC 17 June 2019
Temperature: 26.1°C (79°F)
Dewpoint: 10.6°C (51°F) [RH = 38%]
Pressure (altimeter): 29.94 inches Hg (1014.0 mb)
[Sea-level pressure: 1014.9 mb]
Winds: variable direction winds at 3 MPH (3 knots; 1.5 m/s)
Visibility: 10 or more miles (16+ km)
Ceiling: 25000 feet AGL
Clouds: few clouds at 6000 feet AGL
broken clouds at 25000 feet AGL
Weather: no significant weather observed at this time

METAR text: KMHT 171753Z 24007KT 10SM FEW060 BKN250 26/11 A2995 RMK AO2 SLP152 T02560106 10261 20183 58001
Conditions at: KMHT (MANCHESTER , NH, US) observed 1753 UTC 17 June 2019
Temperature: 25.6°C (78°F)
Dewpoint: 10.6°C (51°F) [RH = 39%]
Pressure (altimeter): 29.95 inches Hg (1014.3 mb)
[Sea-level pressure: 1015.2 mb]
Winds: from the WSW (240 degrees) at 8 MPH (7 knots; 3.6 m/s)
Visibility: 10 or more miles (16+ km)
Ceiling: 25000 feet AGL
Clouds: few clouds at 6000 feet AGL
broken clouds at 25000 feet AGL
Weather: no significant weather observed at this time

METAR text: KMHT 171653Z 29005KT 10SM FEW060 SCT250 24/09 A2996 RMK AO2 SLP156 T02390094
Conditions at: KMHT (MANCHESTER , NH, US) observed 1653 UTC 17 June 2019
Temperature: 23.9°C (75°F)
Dewpoint: 9.4°C (49°F) [RH = 40%]
Pressure (altimeter): 29.96 inches Hg (1014.6 mb)
[Sea-level pressure: 1015.6 mb]
Winds: from the WNW (290 degrees) at 6 MPH (5 knots; 2.6 m/s)
Visibility: 10 or more miles (16+ km)
Ceiling: at least 12,000 feet AGL
Clouds: few clouds at 6000 feet AGL
scattered clouds at 25000 feet AGL
Weather: no significant weather observed at this time

METAR text: KMHT 171553Z 26004KT 10SM FEW050 FEW250 23/11 A2995 RMK AO2 SLP154 T02280106
Conditions at: KMHT (MANCHESTER , NH, US) observed 1553 UTC 17 June 2019
Temperature: 22.8°C (73°F)
Dewpoint: 10.6°C (51°F) [RH = 46%]
Pressure (altimeter): 29.95 inches Hg (1014.3 mb)
[Sea-level pressure: 1015.4 mb]
Winds: from the W (260 degrees) at 5 MPH (4 knots; 2.1 m/s)
Visibility: 10 or more miles (16+ km)
Ceiling: at least 12,000 feet AGL
Clouds: few clouds at 5000 feet AGL
few clouds at 25000 feet AGL
Weather: no significant weather observed at this time

METAR text: KMHT 171453Z 34008KT 10SM FEW045 FEW250 23/11 A2995 RMK AO2 SLP154 T02280106 51007
Conditions at: KMHT (MANCHESTER , NH, US) observed 1453 UTC 17 June 2019
Temperature: 22.8°C (73°F)
Dewpoint: 10.6°C (51°F) [RH = 46%]
Pressure (altimeter): 29.95 inches Hg (1014.3 mb)
[Sea-level pressure: 1015.4 mb]
Winds: from the NNW (340 degrees) at 9 MPH (8 knots; 4.1 m/s)
Visibility: 10 or more miles (16+ km)
Ceiling: at least 12,000 feet AGL
Clouds: few clouds at 4500 feet AGL
few clouds at 25000 feet AGL
Weather: no significant weather observed at this time

METAR text: KMHT 171353Z 32008KT 10SM FEW040 FEW250 22/12 A2995 RMK AO2 SLP154 T02170117
Conditions at: KMHT (MANCHESTER , NH, US) observed 1353 UTC 17 June 2019
Temperature: 21.7°C (71°F)
Dewpoint: 11.7°C (53°F) [RH = 53%]
Pressure (altimeter): 29.95 inches Hg (1014.3 mb)
[Sea-level pressure: 1015.4 mb]
Winds: from the NW (320 degrees) at 9 MPH (8 knots; 4.1 m/s)
Visibility: 10 or more miles (16+ km)
Ceiling: at least 12,000 feet AGL
Clouds: few clouds at 4000 feet AGL
few clouds at 25000 feet AGL
Weather: no significant weather observed at this time

METAR text: KMHT 171253Z 32008KT 10SM FEW040 FEW250 20/13 A2995 RMK AO2 SLP154 T02000128
Conditions at: KMHT (MANCHESTER , NH, US) observed 1253 UTC 17 June 2019
Temperature: 20.0°C (68°F)
Dewpoint: 12.8°C (55°F) [RH = 63%]
Pressure (altimeter): 29.95 inches Hg (1014.3 mb)
[Sea-level pressure: 1015.4 mb]
Winds: from the NW (320 degrees) at 9 MPH (8 knots; 4.1 m/s)
Visibility: 10 or more miles (16+ km)
Ceiling: at least 12,000 feet AGL
Clouds: few clouds at 4000 feet AGL
few clouds at 25000 feet AGL
Weather: no significant weather observed at this time

METAR text: KMHT 171153Z 34007KT 10SM FEW110 FEW250 18/13 A2993 RMK AO2 SLP147 70058 T01830128 10189 20167 51020
Conditions at: KMHT (MANCHESTER , NH, US) observed 1153 UTC 17 June 2019
Temperature: 18.3°C (65°F)
Dewpoint: 12.8°C (55°F) [RH = 70%]
Pressure (altimeter): 29.93 inches Hg (1013.6 mb)
[Sea-level pressure: 1014.7 mb]
Winds: from the NNW (340 degrees) at 8 MPH (7 knots; 3.6 m/s)
Visibility: 10 or more miles (16+ km)
Ceiling: at least 12,000 feet AGL
Clouds: few clouds at 11000 feet AGL
few clouds at 25000 feet AGL
Weather: no significant weather observed at this time

METAR text: KMHT 171053Z 31005KT 10SM BKN055 BKN110 BKN250 17/14 A2992 RMK AO2 SLP144 T01670139
Conditions at: KMHT (MANCHESTER , NH, US) observed 1053 UTC 17 June 2019
Temperature: 16.7°C (62°F)
Dewpoint: 13.9°C (57°F) [RH = 84%]
Pressure (altimeter): 29.92 inches Hg (1013.3 mb)
[Sea-level pressure: 1014.4 mb]
Winds: from the NW (310 degrees) at 6 MPH (5 knots; 2.6 m/s)
Visibility: 10 or more miles (16+ km)
Ceiling: 5500 feet AGL
Clouds: broken clouds at 5500 feet AGL
broken clouds at 11000 feet AGL
broken clouds at 25000 feet AGL
Weather: no significant weather observed at this time

METAR text: KMHT 170953Z 35004KT 10SM BKN047 BKN110 17/14 A2989 RMK AO2 SLP134 T01670144
Conditions at: KMHT (MANCHESTER , NH, US) observed 0953 UTC 17 June 2019
Temperature: 16.7°C (62°F)
Dewpoint: 14.4°C (58°F) [RH = 86%]
Pressure (altimeter): 29.89 inches Hg (1012.3 mb)
[Sea-level pressure: 1013.4 mb]
Winds: from the N (350 degrees) at 5 MPH (4 knots; 2.1 m/s)
Visibility: 10 or more miles (16+ km)
Ceiling: 4700 feet AGL
Clouds: broken clouds at 4700 feet AGL
broken clouds at 11000 feet AGL
Weather: no significant weather observed at this time

METAR text: KMHT 170853Z VRB04KT 10SM SCT060 SCT110 17/16 A2988 RMK AO2 SLP128 T01720161 53019
Conditions at: KMHT (MANCHESTER , NH, US) observed 0853 UTC 17 June 2019
Temperature: 17.2°C (63°F)
Dewpoint: 16.1°C (61°F) [RH = 93%]
Pressure (altimeter): 29.88 inches Hg (1011.9 mb)
[Sea-level pressure: 1012.8 mb]
Winds: variable direction winds at 5 MPH (4 knots; 2.1 m/s)
Visibility: 10 or more miles (16+ km)
Ceiling: at least 12,000 feet AGL
Clouds: scattered clouds at 6000 feet AGL
scattered clouds at 11000 feet AGL
Weather: no significant weather observed at this time

METAR text: KMHT 170753Z 33005KT 10SM SCT055 BKN110 OVC200 18/17 A2985 RMK AO2 SLP120 T01830172
Conditions at: KMHT (MANCHESTER , NH, US) observed 0753 UTC 17 June 2019
Temperature: 18.3°C (65°F)
Dewpoint: 17.2°C (63°F) [RH = 93%]
Pressure (altimeter): 29.85 inches Hg (1010.9 mb)
[Sea-level pressure: 1012.0 mb]
Winds: from the NNW (330 degrees) at 6 MPH (5 knots; 2.6 m/s)
Visibility: 10 or more miles (16+ km)
Ceiling: 11000 feet AGL
Clouds: scattered clouds at 5500 feet AGL
broken clouds at 11000 feet AGL
overcast cloud deck at 20000 feet AGL
Weather: no significant weather observed at this time

METAR text: KMHT 170653Z 33003KT 10SM FEW013 BKN085 OVC110 18/18 A2983 RMK AO2 SLP112 T01830178
Conditions at: KMHT (MANCHESTER , NH, US) observed 0653 UTC 17 June 2019
Temperature: 18.3°C (65°F)
Dewpoint: 17.8°C (64°F) [RH = 97%]
Pressure (altimeter): 29.83 inches Hg (1010.2 mb)
[Sea-level pressure: 1011.2 mb]
Winds: from the NNW (330 degrees) at 3 MPH (3 knots; 1.5 m/s)
Visibility: 10 or more miles (16+ km)
Ceiling: 8500 feet AGL
Clouds: few clouds at 1300 feet AGL
broken clouds at 8500 feet AGL
overcast cloud deck at 11000 feet AGL
Weather: no significant weather observed at this time

METAR text: KMHT 170553Z 00000KT 10SM SCT013 BKN090 OVC110 19/18 A2982 RMK AO2 SLP109 60000 T01890178 10194 20183 53002
Conditions at: KMHT (MANCHESTER , NH, US) observed 0553 UTC 17 June 2019
Temperature: 18.9°C (66°F)
Dewpoint: 17.8°C (64°F) [RH = 93%]
Pressure (altimeter): 29.82 inches Hg (1009.9 mb)
[Sea-level pressure: 1010.9 mb]
Winds: calm
Visibility: 10 or more miles (16+ km)
Ceiling: 9000 feet AGL
Clouds: scattered clouds at 1300 feet AGL
broken clouds at 9000 feet AGL
overcast cloud deck at 11000 feet AGL
Weather: no significant weather observed at this time

METAR text: KMHT 170542Z 28003KT 10SM SCT013 BKN090 OVC110 19/18 A2982 RMK AO2 T01890178
Conditions at: KMHT (MANCHESTER , NH, US) observed 0542 UTC 17 June 2019
Temperature: 18.9°C (66°F)
Dewpoint: 17.8°C (64°F) [RH = 93%]
Pressure (altimeter): 29.82 inches Hg (1009.9 mb)
Winds: from the W (280 degrees) at 3 MPH (3 knots; 1.5 m/s)
Visibility: 10 or more miles (16+ km)
Ceiling: 9000 feet AGL
Clouds: scattered clouds at 1300 feet AGL
broken clouds at 9000 feet AGL
overcast cloud deck at 11000 feet AGL
Weather: no significant weather observed at this time

METAR text: KMHT 170453Z 28003KT 6SM BR SCT003 BKN013 OVC120 19/18 A2982 RMK AO2 SLP108 T01890183 402280178
Conditions at: KMHT (MANCHESTER , NH, US) observed 0453 UTC 17 June 2019
Temperature: 18.9°C (66°F)
Dewpoint: 18.3°C (65°F) [RH = 96%]
Pressure (altimeter): 29.82 inches Hg (1009.9 mb)
[Sea-level pressure: 1010.8 mb]
Winds: from the W (280 degrees) at 3 MPH (3 knots; 1.5 m/s)
Visibility: 6 miles (10 km)
Ceiling: 1300 feet AGL
Clouds: scattered clouds at 300 feet AGL
broken clouds at 1300 feet AGL
overcast cloud deck at 12000 feet AGL
Weather: BR  (mist)

METAR text: KMHT 170450Z 00000KT 6SM BR SCT003 BKN013 OVC120 19/18 A2982 RMK AO2
Conditions at: KMHT (MANCHESTER , NH, US) observed 0450 UTC 17 June 2019
Temperature: 19.0°C (66°F)
Dewpoint: 18.0°C (64°F) [RH = 94%]
Pressure (altimeter): 29.82 inches Hg (1009.9 mb)
Winds: calm
Visibility: 6 miles (10 km)
Ceiling: 1300 feet AGL
Clouds: scattered clouds at 300 feet AGL
broken clouds at 1300 feet AGL
overcast cloud deck at 12000 feet AGL
Weather: BR  (mist)

METAR text: KMHT 170413Z 29003KT 1SM R35/P6000FT BR BKN003 OVC016 19/18 A2982 RMK AO2 SFC VIS 4 T01890183
Conditions at: KMHT (MANCHESTER , NH, US) observed 0413 UTC 17 June 2019
Temperature: 18.9°C (66°F)
Dewpoint: 18.3°C (65°F) [RH = 96%]
Pressure (altimeter): 29.82 inches Hg (1009.9 mb)
Winds: from the WNW (290 degrees) at 3 MPH (3 knots; 1.5 m/s)
Visibility: 1.00 miles (1.61 km)
Ceiling: 300 feet AGL
Clouds: broken clouds at 300 feet AGL
overcast cloud deck at 1600 feet AGL
Weather: BR  (mist)

METAR text: KMHT 170353Z 00000KT 1SM R35/P6000FT BR SCT003 OVC020 19/18 A2981 RMK AO2 SFC VIS 4 SLP106 T01890183
Conditions at: KMHT (MANCHESTER , NH, US) observed 0353 UTC 17 June 2019
Temperature: 18.9°C (66°F)
Dewpoint: 18.3°C (65°F) [RH = 96%]
Pressure (altimeter): 29.81 inches Hg (1009.6 mb)
[Sea-level pressure: 1010.6 mb]
Winds: calm
Visibility: 1.00 miles (1.61 km)
Ceiling: 2000 feet AGL
Clouds: scattered clouds at 300 feet AGL
overcast cloud deck at 2000 feet AGL
Weather: BR  (mist)

METAR text: KMHT 170338Z 24003KT 1SM R35/P6000FT BR FEW005 OVC022 19/18 A2981 RMK AO2 SFC VIS 4 T01890183
Conditions at: KMHT (MANCHESTER , NH, US) observed 0338 UTC 17 June 2019
Temperature: 18.9°C (66°F)
Dewpoint: 18.3°C (65°F) [RH = 96%]
Pressure (altimeter): 29.81 inches Hg (1009.6 mb)
Winds: from the WSW (240 degrees) at 3 MPH (3 knots; 1.5 m/s)
Visibility: 1.00 miles (1.61 km)
Ceiling: 2200 feet AGL
Clouds: few clouds at 500 feet AGL
overcast cloud deck at 2200 feet AGL
Weather: BR  (mist)

METAR text: KMHT 170253Z 00000KT 10SM FEW005 BKN027 OVC035 19/18 A2981 RMK AO2 RAE12 SLP107 P0000 60000 T01890183 50002
Conditions at: KMHT (MANCHESTER , NH, US) observed 0253 UTC 17 June 2019
Temperature: 18.9°C (66°F)
Dewpoint: 18.3°C (65°F) [RH = 96%]
Pressure (altimeter): 29.81 inches Hg (1009.6 mb)
[Sea-level pressure: 1010.7 mb]
Winds: calm
Visibility: 10 or more miles (16+ km)
Ceiling: 2700 feet AGL
Clouds: few clouds at 500 feet AGL
broken clouds at 2700 feet AGL
overcast cloud deck at 3500 feet AGL
Weather: no significant weather observed at this time

METAR text: KMHT 170242Z 00000KT 10SM FEW005 BKN027 OVC035 19/18 A2981 RMK AO2 RAE12 P0000 T01890183
Conditions at: KMHT (MANCHESTER , NH, US) observed 0242 UTC 17 June 2019
Temperature: 18.9°C (66°F)
Dewpoint: 18.3°C (65°F) [RH = 96%]
Pressure (altimeter): 29.81 inches Hg (1009.6 mb)
Winds: calm
Visibility: 10 or more miles (16+ km)
Ceiling: 2700 feet AGL
Clouds: few clouds at 500 feet AGL
broken clouds at 2700 feet AGL
overcast cloud deck at 3500 feet AGL
Weather: no significant weather observed at this time

METAR text: KMHT 170153Z 00000KT 9SM -RA BKN022 OVC038 19/18 A2981 RMK AO2 RAB0054 SLP107 P0000 T01890183
Conditions at: KMHT (MANCHESTER , NH, US) observed 0153 UTC 17 June 2019
Temperature: 18.9°C (66°F)
Dewpoint: 18.3°C (65°F) [RH = 96%]
Pressure (altimeter): 29.81 inches Hg (1009.6 mb)
[Sea-level pressure: 1010.7 mb]
Winds: calm
Visibility: 9 miles (14 km)
Ceiling: 2200 feet AGL
Clouds: broken clouds at 2200 feet AGL
overcast cloud deck at 3800 feet AGL
Weather: -RA  (light rain)

METAR text: KMHT 170126Z 00000KT 9SM -RA BKN022 OVC090 19/18 A2982 RMK AO2 RAB0054 P0000 T01890183
Conditions at: KMHT (MANCHESTER , NH, US) observed 0126 UTC 17 June 2019
Temperature: 18.9°C (66°F)
Dewpoint: 18.3°C (65°F) [RH = 96%]
Pressure (altimeter): 29.82 inches Hg (1009.9 mb)
Winds: calm
Visibility: 9 miles (14 km)
Ceiling: 2200 feet AGL
Clouds: broken clouds at 2200 feet AGL
overcast cloud deck at 9000 feet AGL
Weather: -RA  (light rain)

METAR text: KMHT 170053Z 00000KT 10SM FEW007 BKN030 OVC110 19/18 A2981 RMK AO2 SLP105 T01940183
Conditions at: KMHT (MANCHESTER , NH, US) observed 0053 UTC 17 June 2019
Temperature: 19.4°C (67°F)
Dewpoint: 18.3°C (65°F) [RH = 93%]
Pressure (altimeter): 29.81 inches Hg (1009.6 mb)
[Sea-level pressure: 1010.5 mb]
Winds: calm
Visibility: 10 or more miles (16+ km)
Ceiling: 3000 feet AGL
Clouds: few clouds at 700 feet AGL
broken clouds at 3000 feet AGL
overcast cloud deck at 11000 feet AGL
Weather: no significant weather observed at this time

METAR text: KMHT 162353Z 00000KT 10SM FEW007 SCT020 BKN050 OVC130 19/18 A2981 RMK AO2 RAE46 SLP104 P0000 60038 T01940183 10200 20189 56004
Conditions at: KMHT (MANCHESTER , NH, US) observed 2353 UTC 16 June 2019
Temperature: 19.4°C (67°F)
Dewpoint: 18.3°C (65°F) [RH = 93%]
Pressure (altimeter): 29.81 inches Hg (1009.6 mb)
[Sea-level pressure: 1010.4 mb]
Winds: calm
Visibility: 10 or more miles (16+ km)
Ceiling: 5000 feet AGL
Clouds: few clouds at 700 feet AGL
scattered clouds at 2000 feet AGL
broken clouds at 5000 feet AGL
overcast cloud deck at 13000 feet AGL
Weather: no significant weather observed at this time

METAR text: KMHT 162253Z 00000KT 10SM -RA FEW006 BKN025 OVC040 19/18 A2981 RMK AO2 RAE04B50 SLP105 P0000 T01940178
Conditions at: KMHT (MANCHESTER , NH, US) observed 2253 UTC 16 June 2019
Temperature: 19.4°C (67°F)
Dewpoint: 17.8°C (64°F) [RH = 90%]
Pressure (altimeter): 29.81 inches Hg (1009.6 mb)
[Sea-level pressure: 1010.5 mb]
Winds: calm
Visibility: 10 or more miles (16+ km)
Ceiling: 2500 feet AGL
Clouds: few clouds at 600 feet AGL
broken clouds at 2500 feet AGL
overcast cloud deck at 4000 feet AGL
Weather: -RA  (light rain)

METAR text: KMHT 162153Z 19005KT 10SM -RA FEW007 SCT060 OVC100 19/18 A2980 RMK AO2 SLP102 P0002 T01940183
Conditions at: KMHT (MANCHESTER , NH, US) observed 2153 UTC 16 June 2019
Temperature: 19.4°C (67°F)
Dewpoint: 18.3°C (65°F) [RH = 93%]
Pressure (altimeter): 29.80 inches Hg (1009.2 mb)
[Sea-level pressure: 1010.2 mb]
Winds: from the S (190 degrees) at 6 MPH (5 knots; 2.6 m/s)
Visibility: 10 or more miles (16+ km)
Ceiling: 10000 feet AGL
Clouds: few clouds at 700 feet AGL
scattered clouds at 6000 feet AGL
overcast cloud deck at 10000 feet AGL
Weather: -RA  (light rain)

METAR text: KMHT 162053Z 18005KT 8SM -RA FEW007 BKN050 OVC080 19/18 A2982 RMK AO2 SLP108 P0017 60036 T01940183 58008
Conditions at: KMHT (MANCHESTER , NH, US) observed 2053 UTC 16 June 2019
Temperature: 19.4°C (67°F)
Dewpoint: 18.3°C (65°F) [RH = 93%]
Pressure (altimeter): 29.82 inches Hg (1009.9 mb)
[Sea-level pressure: 1010.8 mb]
Winds: from the S (180 degrees) at 6 MPH (5 knots; 2.6 m/s)
Visibility: 8 miles (13 km)
Ceiling: 5000 feet AGL
Clouds: few clouds at 700 feet AGL
broken clouds at 5000 feet AGL
overcast cloud deck at 8000 feet AGL
Weather: -RA  (light rain)

METAR text: KMHT 162034Z 17006KT 2 1/2SM -RA BR SCT007 BKN060 OVC075 19/18 A2982 RMK AO2 SFC VIS 4 P0017 T01940183
Conditions at: KMHT (MANCHESTER , NH, US) observed 2034 UTC 16 June 2019
Temperature: 19.4°C (67°F)
Dewpoint: 18.3°C (65°F) [RH = 93%]
Pressure (altimeter): 29.82 inches Hg (1009.9 mb)
Winds: from the S (170 degrees) at 7 MPH (6 knots; 3.1 m/s)
Visibility: 2.50 miles (4.02 km)
Ceiling: 6000 feet AGL
Clouds: scattered clouds at 700 feet AGL
broken clouds at 6000 feet AGL
overcast cloud deck at 7500 feet AGL
Weather: -RA BR  (light rain, mist)

METAR text: KMHT 162011Z 20005KT 1 1/2SM +RA BR FEW008 OVC040 19/18 A2984 RMK AO2 P0010 T01890183
Conditions at: KMHT (MANCHESTER , NH, US) observed 2011 UTC 16 June 2019
Temperature: 18.9°C (66°F)
Dewpoint: 18.3°C (65°F) [RH = 96%]
Pressure (altimeter): 29.84 inches Hg (1010.6 mb)
Winds: from the SSW (200 degrees) at 6 MPH (5 knots; 2.6 m/s)
Visibility: 1.50 miles (2.41 km)
Ceiling: 4000 feet AGL
Clouds: few clouds at 800 feet AGL
overcast cloud deck at 4000 feet AGL
Weather: +RA BR  (heavy rain, mist)

METAR text: KMHT 161953Z 18007KT 4SM RA BR SCT008 OVC070 19/18 A2984 RMK AO2 SLP115 P0011 T01940183
Conditions at: KMHT (MANCHESTER , NH, US) observed 1953 UTC 16 June 2019
Temperature: 19.4°C (67°F)
Dewpoint: 18.3°C (65°F) [RH = 93%]
Pressure (altimeter): 29.84 inches Hg (1010.6 mb)
[Sea-level pressure: 1011.5 mb]
Winds: from the S (180 degrees) at 8 MPH (7 knots; 3.6 m/s)
Visibility: 4 miles ( 6 km)
Ceiling: 7000 feet AGL
Clouds: scattered clouds at 800 feet AGL
overcast cloud deck at 7000 feet AGL
Weather: RA BR  (moderate rain, mist)

METAR text: KMHT 161915Z 22005KT 4SM -RA BR SCT006 OVC060 19/18 A2984 RMK AO2 P0004 T01940183
Conditions at: KMHT (MANCHESTER , NH, US) observed 1915 UTC 16 June 2019
Temperature: 19.4°C (67°F)
Dewpoint: 18.3°C (65°F) [RH = 93%]
Pressure (altimeter): 29.84 inches Hg (1010.6 mb)
Winds: from the SW (220 degrees) at 6 MPH (5 knots; 2.6 m/s)
Visibility: 4 miles ( 6 km)
Ceiling: 6000 feet AGL
Clouds: scattered clouds at 600 feet AGL
overcast cloud deck at 6000 feet AGL
Weather: -RA BR  (light rain, mist)

METAR text: KMHT 161853Z 19007KT 4SM RA BR BKN006 OVC060 19/18 A2985 RMK AO2 SLP117 P0008 T01940183
Conditions at: KMHT (MANCHESTER , NH, US) observed 1853 UTC 16 June 2019
Temperature: 19.4°C (67°F)
Dewpoint: 18.3°C (65°F) [RH = 93%]
Pressure (altimeter): 29.85 inches Hg (1010.9 mb)
[Sea-level pressure: 1011.7 mb]
Winds: from the S (190 degrees) at 8 MPH (7 knots; 3.6 m/s)
Visibility: 4 miles ( 6 km)
Ceiling: 600 feet AGL
Clouds: broken clouds at 600 feet AGL
overcast cloud deck at 6000 feet AGL
Weather: RA BR  (moderate rain, mist)

METAR text: KMHT 161821Z 18005KT 6SM -RA BR BKN006 OVC070 19/19 A2984 RMK AO2 P0002 T01940189
Conditions at: KMHT (MANCHESTER , NH, US) observed 1821 UTC 16 June 2019
Temperature: 19.4°C (67°F)
Dewpoint: 18.9°C (66°F) [RH = 97%]
Pressure (altimeter): 29.84 inches Hg (1010.6 mb)
Winds: from the S (180 degrees) at 6 MPH (5 knots; 2.6 m/s)
Visibility: 6 miles (10 km)
Ceiling: 600 feet AGL
Clouds: broken clouds at 600 feet AGL
overcast cloud deck at 7000 feet AGL
Weather: -RA BR  (light rain, mist)

METAR text: KMHT 161753Z 17005KT 4SM -RA BR FEW005 FEW015 OVC080 19/18 A2984 RMK AO2 SLP115 P0013 60020 T01940183 10200 20183 58004
Conditions at: KMHT (MANCHESTER , NH, US) observed 1753 UTC 16 June 2019
Temperature: 19.4°C (67°F)
Dewpoint: 18.3°C (65°F) [RH = 93%]
Pressure (altimeter): 29.84 inches Hg (1010.6 mb)
[Sea-level pressure: 1011.5 mb]
Winds: from the S (170 degrees) at 6 MPH (5 knots; 2.6 m/s)
Visibility: 4 miles ( 6 km)
Ceiling: 8000 feet AGL
Clouds: few clouds at 500 feet AGL
few clouds at 1500 feet AGL
overcast cloud deck at 8000 feet AGL
Weather: -RA BR  (light rain, mist)

METAR text: KMHT 161737Z 18006KT 4SM -RA BR FEW007 SCT020 OVC070 19/18 A2985 RMK AO2 P0010 T01940183
Conditions at: KMHT (MANCHESTER , NH, US) observed 1737 UTC 16 June 2019
Temperature: 19.4°C (67°F)
Dewpoint: 18.3°C (65°F) [RH = 93%]
Pressure (altimeter): 29.85 inches Hg (1010.9 mb)
Winds: from the S (180 degrees) at 7 MPH (6 knots; 3.1 m/s)
Visibility: 4 miles ( 6 km)
Ceiling: 7000 feet AGL
Clouds: few clouds at 700 feet AGL
scattered clouds at 2000 feet AGL
overcast cloud deck at 7000 feet AGL
Weather: -RA BR  (light rain, mist)

METAR text: KMHT 161700Z 19007KT 4SM -RA BR BKN018 BKN023 OVC060 20/18 A2986 RMK AO2 P0002 T02000183
Conditions at: KMHT (MANCHESTER , NH, US) observed 1700 UTC 16 June 2019
Temperature: 20.0°C (68°F)
Dewpoint: 18.3°C (65°F) [RH = 90%]
Pressure (altimeter): 29.86 inches Hg (1011.3 mb)
Winds: from the S (190 degrees) at 8 MPH (7 knots; 3.6 m/s)
Visibility: 4 miles ( 6 km)
Ceiling: 1800 feet AGL
Clouds: broken clouds at 1800 feet AGL
broken clouds at 2300 feet AGL
overcast cloud deck at 6000 feet AGL
Weather: -RA BR  (light rain, mist)

METAR text: KMHT 161653Z 19008KT 7SM -RA BKN013 BKN018 OVC110 20/18 A2987 RMK AO2 SLP125 P0001 T02000178
Conditions at: KMHT (MANCHESTER , NH, US) observed 1653 UTC 16 June 2019
Temperature: 20.0°C (68°F)
Dewpoint: 17.8°C (64°F) [RH = 87%]
Pressure (altimeter): 29.87 inches Hg (1011.6 mb)
[Sea-level pressure: 1012.5 mb]
Winds: from the S (190 degrees) at 9 MPH (8 knots; 4.1 m/s)
Visibility: 7 miles (11 km)
Ceiling: 1300 feet AGL
Clouds: broken clouds at 1300 feet AGL
broken clouds at 1800 feet AGL
overcast cloud deck at 11000 feet AGL
Weather: -RA  (light rain)

METAR text: KMHT 161624Z 19007KT 10SM -RA BKN013 BKN070 OVC110 20/18 A2986 RMK AO2 P0000 T02000183
Conditions at: KMHT (MANCHESTER , NH, US) observed 1624 UTC 16 June 2019
Temperature: 20.0°C (68°F)
Dewpoint: 18.3°C (65°F) [RH = 90%]
Pressure (altimeter): 29.86 inches Hg (1011.3 mb)
Winds: from the S (190 degrees) at 8 MPH (7 knots; 3.6 m/s)
Visibility: 10 or more miles (16+ km)
Ceiling: 1300 feet AGL
Clouds: broken clouds at 1300 feet AGL
broken clouds at 7000 feet AGL
overcast cloud deck at 11000 feet AGL
Weather: -RA  (light rain)

METAR text: KMHT 161553Z 18005KT 5SM -RA BR FEW055 SCT085 OVC100 20/18 A2986 RMK AO2 SLP122 P0004 T02000183
Conditions at: KMHT (MANCHESTER , NH, US) observed 1553 UTC 16 June 2019
Temperature: 20.0°C (68°F)
Dewpoint: 18.3°C (65°F) [RH = 90%]
Pressure (altimeter): 29.86 inches Hg (1011.3 mb)
[Sea-level pressure: 1012.2 mb]
Winds: from the S (180 degrees) at 6 MPH (5 knots; 2.6 m/s)
Visibility: 5 miles ( 8 km)
Ceiling: 10000 feet AGL
Clouds: few clouds at 5500 feet AGL
scattered clouds at 8500 feet AGL
overcast cloud deck at 10000 feet AGL
Weather: -RA BR  (light rain, mist)

Forecast for: KMHT (MANCHESTER , NH, US)
Text: KMHT 172326Z 1800/1824 VRB03KT P6SM BKN200
Forecast period: 0000 to 1400 UTC 18 June 2019
Forecast type: FROM: standard forecast or significant change
Winds: variable direction winds at 3 MPH (3 knots; 1.5 m/s)
Visibility: 6 or more miles 10+ km)
Ceiling: 20000 feet AGL
Clouds: broken clouds at 20000 feet AGL
Weather: no significant weather forecast for this period
Text: FM181400 12005KT P6SM BKN050
Forecast period: 1400 UTC 18 June 2019 to 0000 UTC 19 June 2019
Forecast type: FROM: standard forecast or significant change
Winds: from the ESE (120 degrees) at 6 MPH (5 knots; 2.6 m/s)
Visibility: 6 or more miles 10+ km)
Ceiling: 5000 feet AGL
Clouds: broken clouds at 5000 feet AGL
Weather: no significant weather forecast for this period
Text: PROB30 1814/1820 5SM -SHRA BR OVC025
Forecast period: 1400 to 2000 UTC 18 June 2019
Forecast type: PROBABLE: 30 percent likelihood of the following during this time
Visibility: 5 miles (8 km)
Ceiling: 2500 feet AGL
Clouds: overcast cloud deck at 2500 feet AGL
Weather: -SHRA BR  (light rain showers, mist)